• Join FlightAware (Why Join?)
  • Login
  • US Flag 
08:58PM EST


 

Airport Tracker/Info


-or-


 

Live Flight TrackerFlight Track Log ✈ N26141 ✈ 30-Apr-2013 ✈ KTUL - KEWR

Flight Track Log - Related Links

Times and Time Zones

All times are in EDT time to prevent confusion due to time zone crossing. See the N26141 flight status page for this flight to view local times or setup timezone preferences in your user account.

Time Position Orientation Groundspeed Altitude Reporting Facility
EDT Latitude Longitude Course Direction KTS MPH feet Rate Location/Type
07:02AM 36.1956 -95.9150 58° Northeast 168 193 1,400  Level Kansas City Center
07:02AM 36.2314 -95.9414 329° Northwest 234 269 3,100 2,040 Climbing Kansas City Center
07:03AM 36.2661 -95.9139 33° Northeast 273 314 4,300 2,520 Climbing Kansas City Center
07:04AM 36.3053 -95.8275 61° Northeast 285 328 7,200 2,820 Climbing Kansas City Center
07:05AM 36.4018 -95.4131 58° Northeast  Level FlightAware Approximate
07:05AM 36.3428 -95.7411 62° Northeast 284 327 10,000  Level Kansas City Center
07:06AM 36.4598 -95.2970 58° Northeast  Level FlightAware Approximate
07:06AM 36.3858 -95.6442 61° Northeast 313 360 11,100  Level Kansas City Center
07:07AM 36.5109 -95.1785 58° Northeast  Level FlightAware Approximate
07:07AM 36.4333 -95.5342 62° Northeast 348 400 13,100  Level Kansas City Center
07:08AM 36.4828 -95.4197 62° Northeast 357 411 15,100 1,740 Climbing Kansas City Center
07:09AM 36.5361 -95.2972 62° Northeast 369 425 16,700 1,680 Climbing Kansas City Center
07:10AM 36.5856 -95.1808 62° Northeast 378 435 18,600 1,740 Climbing Kansas City Center
07:11AM 36.6328 -95.0689 62° Northeast 383 441 20,300 1,560 Climbing Kansas City Center
07:12AM 36.6842 -94.9478 62° Northeast 391 450 21,800 1,560 Climbing Kansas City Center
07:13AM 36.7361 -94.8239 62° Northeast 400 460 23,500 1,680 Climbing Kansas City Center
07:14AM 36.7892 -94.7008 62° Northeast 402 463 25,200 1,740 Climbing Kansas City Center
07:15AM 36.8403 -94.5786 62° Northeast 398 458 27,100 1,860 Climbing Kansas City Center
07:16AM 36.8908 -94.4617 62° Northeast 389 448 29,000 1,860 Climbing Kansas City Center
07:17AM 36.9392 -94.3494 62° Northeast 377 434 30,900 1,800 Climbing Kansas City Center
07:18AM 36.9847 -94.2383 63° Northeast 363 418 32,700 1,620 Climbing Kansas City Center
07:19AM 37.0297 -94.1297 63° Northeast 355 409 34,200 1,080 Climbing Kansas City Center
07:20AM 37.0736 -94.0219 63° Northeast 350 403 35,000 360 Climbing Kansas City Center
07:21AM 37.1225 -93.9078 62° Northeast 364 419 35,000  Level Kansas City Center
07:22AM 37.1744 -93.7806 63° Northeast 396 456 35,000  Level Kansas City Center
07:23AM 37.2283 -93.6483 63° Northeast 418 481 35,000  Level Kansas City Center
07:24AM 37.2842 -93.5119 63° Northeast 434 499 35,000  Level Kansas City Center
07:25AM 37.3397 -93.3747 63° Northeast 439 505 35,000  Level Kansas City Center
07:26AM 37.4169 -93.2183 58° Northeast 439 505 35,000  Level Kansas City Center
07:27AM 37.4878 -93.0939 54° Northeast 437 503 35,000  Level Kansas City Center
07:28AM 37.5567 -92.9689 55° Northeast 435 501 35,000  Level Kansas City Center
07:29AM 37.6253 -92.8428 55° Northeast 435 501 35,000  Level Kansas City Center
07:30AM 37.6836 -92.7339 56° Northeast 436 502 35,000  Level Kansas City Center
07:31AM 37.7511 -92.6083 56° Northeast 434 499 35,000  Level Kansas City Center
07:32AM 37.8194 -92.4828 55° Northeast 434 499 35,000  Level Kansas City Center
07:33AM 37.9011 -92.3308 56° Northeast 437 503 35,000  Level Kansas City Center
07:34AM 37.9667 -92.2022 57° Northeast 438 504 35,000  Level Kansas City Center
07:35AM 38.0350 -92.0775 55° Northeast 434 499 35,000  Level Kansas City Center
07:37AM 38.1067 -91.9431 56° Northeast 429 494 35,000  Level Kansas City Center
07:38AM 38.1731 -91.8175 56° Northeast 429 494 35,000  Level Kansas City Center
07:39AM 38.2389 -91.6917 56° Northeast 428 493 35,000  Level Kansas City Center
07:40AM 38.3044 -91.5667 56° Northeast 426 490 35,000  Level Kansas City Center
07:41AM 38.3692 -91.4414 57° Northeast 424 488 35,000  Level Kansas City Center
07:42AM 38.4278 -91.3275 57° Northeast 423 487 35,000  Level Kansas City Center
07:43AM 38.4936 -91.2017 56° Northeast 425 489 35,000  Level Kansas City Center
07:44AM 38.5583 -91.0769 56° Northeast 424 488 35,000  Level Kansas City Center
07:45AM 38.6225 -90.9500 57° Northeast 424 488 35,000  Level Kansas City Center
07:46AM 38.6997 -90.7997 57° Northeast 422 486 35,000  Level Kansas City Center
07:47AM 38.7650 -90.6725 57° Northeast 422 486 35,000  Level Kansas City Center
07:48AM 38.8239 -90.5606 56° Northeast 423 487 35,000 240 Level Kansas City Center
07:49AM 38.8747 -90.4250 64° Northeast 421 484 35,600 720 Climbing Kansas City Center
07:50AM 38.9106 -90.2828 72° East 417 480 36,500 660 Climbing Kansas City Center
07:51AM 38.9519 -90.1186 72° East 418 481 37,000 240 Climbing Kansas City Center
07:52AM 38.9897 -89.9669 72° East 421 484 37,000  Level Kansas City Center
07:53AM 39.0253 -89.8228 72° East 422 486 37,000  Level Kansas City Center
07:54AM 39.0608 -89.6778 72° East 425 489 37,000  Level Kansas City Center
07:55AM 39.0961 -89.5325 73° East 425 489 37,000  Level Kansas City Center
07:56AM 39.1331 -89.3789 73° East 420 483 37,000  Level Kansas City Center
07:57AM 39.1625 -89.2542 73° East 418 481 37,000  Level Kansas City Center
07:58AM 39.1975 -89.1094 73° East 422 486 37,000  Level Kansas City Center
07:59AM 39.2317 -88.9669 73° East 419 482 37,000  Level Kansas City Center
08:00AM 39.2686 -88.8267 71° East 416 479 37,000  Level Kansas City Center
08:01AM 39.3072 -88.6544 74° East 417 480 37,000  Level Kansas City Center
08:02AM 39.3372 -88.5289 73° East 416 479 37,000  Level Kansas City Center
08:03AM 39.3703 -88.3847 73° East 415 478 37,000  Level Kansas City Center
08:04AM 39.4019 -88.2417 74° East 414 476 37,000  Level Kansas City Center
08:05AM 39.4406 -88.0717 74° East 410 472 37,000  Level Kansas City Center
08:06AM 39.4725 -87.9281 74° East 411 473 37,000  Level Kansas City Center
08:07AM 39.5053 -87.7819 74° East 415 478 37,000  Level Indianapolis Center
08:08AM 39.5383 -87.6372 73° East 415 478 37,000  Level Indianapolis Center
08:09AM 39.5717 -87.4881 74° East 422 486 37,000  Level Indianapolis Center
08:10AM 39.6044 -87.3406 74° East 423 487 37,000  Level Indianapolis Center
08:11AM 39.6378 -87.1933 74° East 424 488 37,000  Level Indianapolis Center
08:12AM 39.6706 -87.0436 74° East 427 491 37,000  Level Indianapolis Center
08:13AM 39.7033 -86.8928 74° East 430 495 37,000  Level Indianapolis Center
08:14AM 39.7372 -86.7414 74° East 433 498 37,000  Level Indianapolis Center
08:15AM 39.7706 -86.5875 74° East 438 504 37,000  Level Indianapolis Center
08:16AM 39.8042 -86.4319 74° East 443 510 37,000  Level Indianapolis Center
08:17AM 39.8444 -86.2422 74° East 449 517 37,000  Level Indianapolis Center
08:18AM 39.8778 -86.0833 75° East 454 522 37,000  Level Indianapolis Center
08:19AM 39.9128 -85.9208 74° East 453 521 37,000  Level Indianapolis Center
08:20AM 39.9461 -85.7597 75° East 455 524 37,000  Level Indianapolis Center
08:21AM 39.9786 -85.5986 75° East 456 525 37,000  Level Indianapolis Center
08:22AM 40.0119 -85.4356 75° East 459 528 37,000  Level Indianapolis Center
08:24AM 40.0439 -85.2725 76° East 461 531 37,000  Level Indianapolis Center
08:25AM 40.0803 -85.1078 74° East 467 537 37,000  Level Indianapolis Center
08:26AM 40.1122 -84.9436 76° East 465 535 37,000  Level Indianapolis Center
08:27AM 40.1450 -84.7775 75° East 466 536 37,000  Level Indianapolis Center
08:28AM 40.1783 -84.6117 75° East 467 537 37,000  Level Indianapolis Center
08:29AM 40.2114 -84.4453 75° East 468 539 37,000  Level Indianapolis Center
08:30AM 40.2483 -84.2506 76° East 468 539 37,000 -60 Level Indianapolis Center
08:31AM 40.2811 -84.0839 75° East 469 540 36,900  Descending Indianapolis Center
08:32AM 40.3483 -83.9414 58° Northeast 454 522 37,000  Climbing Indianapolis Center
08:33AM 40.4264 -83.8069 53° Northeast 457 526 37,000  Level Indianapolis Center
08:34AM 40.5036 -83.6719 53° Northeast 456 525 37,000 -60 Level Indianapolis Center
08:35AM 40.5808 -83.5386 53° Northeast 454 522 36,900  Descending Indianapolis Center
08:36AM 40.6567 -83.4058 53° Northeast 450 518 37,000 60 Climbing Indianapolis Center
08:36AM 40.6944 -83.3436 51° Northeast 445 512 37,000  Level Cleveland Center
08:37AM 40.7706 -83.2125 53° Northeast 445 512 37,000  Level Cleveland Center
08:38AM 40.8358 -83.0942 54° Northeast 445 512 37,000  Level Cleveland Center
08:39AM 40.9072 -82.9678 53° Northeast 439 505 37,000  Level Cleveland Center
08:40AM 40.9872 -82.8250 53° Northeast 439 505 37,000  Level Cleveland Center
08:41AM 41.0628 -82.6925 53° Northeast 439 505 37,000  Level Cleveland Center
08:42AM 41.1361 -82.5625 53° Northeast 444 511 37,000  Level Cleveland Center
08:43AM 41.2092 -82.4297 54° Northeast 444 511 37,000  Level Cleveland Center
08:44AM 41.2758 -82.2989 56° Northeast 444 511 37,000  Level Cleveland Center
08:45AM 41.3528 -82.1653 52° Northeast 444 511 37,000  Level Cleveland Center
08:46AM 41.4008 -82.0114 67° East 436 502 37,000  Level Cleveland Center
08:47AM 41.4419 -81.8683 69° East 443 510 37,000  Level Cleveland Center
08:48AM 41.4894 -81.7114 68° East 453 521 37,000  Level Cleveland Center
08:49AM 41.5328 -81.5511 70° East 458 527 37,000  Level Cleveland Center
08:50AM 41.5819 -81.3769 69° East 450 518 37,000  Level Cleveland Center
08:51AM 41.6247 -81.2192 70° East 450 518 37,000  Level Cleveland Center
08:52AM 41.6714 -81.0586 69° East 450 518 37,000  Level Cleveland Center
08:53AM 41.7156 -80.8947 70° East 450 518 37,000  Level Cleveland Center
08:54AM 41.7597 -80.7361 69° East 450 518 37,000  Level Cleveland Center
08:55AM 41.7953 -80.5719 74° East 450 518 37,000  Level Cleveland Center
08:56AM 41.7828 -80.3967 95° East 455 524 37,000  Level Cleveland Center
08:57AM 41.7633 -80.2214 98° East 466 536 37,000  Level Cleveland Center
08:58AM 41.7483 -80.0628 97° East 471 542 37,000  Level Cleveland Center
08:59AM 41.7306 -79.8875 98° East 476 548 37,000  Level Cleveland Center
09:00AM 41.7108 -79.7125 99° East 476 548 37,000  Level Cleveland Center
09:01AM 41.6925 -79.5264 97° East 476 548 37,000  Level Cleveland Center
09:02AM 41.6742 -79.3572 98° East 465 535 37,000  Level Cleveland Center
09:03AM 41.6556 -79.1853 98° East 465 535 37,000  Level Cleveland Center
09:04AM 41.6367 -79.0161 98° East 465 535 37,000  Level Cleveland Center
09:05AM 41.6156 -78.8472 99° East 465 535 37,000  Level Cleveland Center
09:06AM 41.5961 -78.6756 99° East 465 535 37,000 -300 Level Cleveland Center
09:07AM 41.5764 -78.5014 99° East 465 535 36,500 -1,620 Descending Cleveland Center
09:09AM 41.5436 -78.2244 99° East 493 567 32,700 -2,040 Descending New York Center
09:10AM 41.5233 -78.0503 99° East 488 562 31,000 -900 Descending New York Center
09:11AM 41.5006 -77.8761 100° East 483 556 31,000  Level New York Center
09:12AM 41.4753 -77.7017 101° East 478 550 31,000  Level New York Center
09:13AM 41.4500 -77.5275 101° East 473 544 31,000  Level New York Center
09:14AM 41.4222 -77.3531 102° East 473 544 31,000  Level New York Center
09:15AM 41.3967 -77.1761 101° East 473 544 31,000 -180 Level New York Center
09:16AM 41.3725 -77.0025 100° East 473 544 30,700 -1,140 Descending New York Center
09:17AM 41.3439 -76.8311 102° East 473 544 28,800 -1,980 Descending New York Center
09:18AM 41.3044 -76.6592 107° East 478 550 26,700 -2,280 Descending New York Center
09:19AM 41.2606 -76.4953 110° East 478 550 24,300 -2,580 Descending New York Center
09:20AM 41.2181 -76.3344 109° East 471 542 21,700 -2,820 Descending New York Center
09:21AM 41.1739 -76.1681 109° East 442 509 18,800 -1,860 Descending New York Center
09:22AM 41.1364 -76.0247 109° East 419 482 18,000 -540 Descending New York Center
09:23AM 41.1003 -75.8981 111° Southeast 411 473 17,800 -1,320 Descending New York Center
09:24AM 41.0625 -75.7575 110° East 375 432 15,400 -2,220 Descending New York Center
09:25AM 41.0281 -75.6367 111° Southeast 356 410 13,400 -1,260 Descending New York Center
09:26AM 40.9953 -75.5217 111° Southeast 344 396 12,900 -240 Descending New York Center
09:27AM 40.9683 -75.4153 109° East 324 373 13,000 -120 Climbing New York Center
09:28AM 40.9369 -75.3086 111° Southeast 318 366 12,700 -1,080 Descending New York Center
09:29AM 40.9075 -75.2025 110° East 313 360 10,900 -1,740 Descending New York Center
09:30AM 40.8781 -75.1044 112° Southeast 300 345 9,300 -1,560 Descending New York Center
09:31AM 40.8558 -75.0236 110° East 274 315 7,800 -1,200 Descending New York Center
09:32AM 40.8261 -74.9203 111° Southeast 269 310 7,000 -420 Descending New York Center
09:33AM 40.7956 -74.8442 118° Southeast 264 304 7,000 -120 Level New York Center
09:34AM 40.7569 -74.7544 120° Southeast 258 297 6,800 -540 Descending New York Center
09:35AM 40.7197 -74.6864 126° Southeast 258 297 6,000 -900 Descending New York Center
09:36AM 40.6767 -74.5964 122° Southeast 258 297 5,000 -840 Descending New York Center
09:36AM 40.6667 -74.5667 114° Southeast 262 302 5,000  Level New York TRACON
09:37AM 40.6167 -74.4833 128° Southeast 260 299 5,000 -120 Level New York TRACON
09:38AM 40.5833 -74.4167 123° Southeast 225 259 4,800 -660 Descending New York TRACON
09:39AM 40.5500 -74.3500 123° Southeast 209 241 3,800 -1,080 Descending New York TRACON
09:40AM 40.5667 -74.2667 75° East 204 235 2,700 -840 Descending New York TRACON
09:41AM 40.5833 -74.2333 57° Northeast 179 206 2,200 -600 Descending New York TRACON